Time;durP1;ratioP1;P1;durP2;ratioP2;P2;SDS_P1;SDS_P2;PMS_P1;PMS_P2;Temp;Humidity;BMP_temperature;BMP_pressure;BME280_temperature;BME280_humidity;BME280_pressure;Samples;Min_cycle;Max_cycle;Signal;HPM_P1;HPM_P2
2022/04/13 00:00:13;;;;;;;2.45;1.70;;;13.30;99.90;;;;;;4947411;29;20118;-79
2022/04/13 00:02:39;;;;;;;2.90;1.95;;;13.30;99.90;;;;;;4952922;29;20478;-79
2022/04/13 00:05:06;;;;;;;2.50;2.00;;;13.20;99.90;;;;;;4953037;29;20065;-79
2022/04/13 00:07:32;;;;;;;2.40;1.80;;;13.20;99.90;;;;;;4952805;29;20043;-80
2022/04/13 00:09:58;;;;;;;2.63;1.90;;;13.10;99.90;;;;;;4948913;29;20102;-79
2022/04/13 00:12:23;;;;;;;2.42;1.85;;;13.10;99.90;;;;;;4952980;28;20109;-79
2022/04/13 00:14:49;;;;;;;2.30;1.83;;;13.00;99.90;;;;;;4951199;28;20442;-79
2022/04/13 00:17:15;;;;;;;2.63;1.80;;;13.00;99.90;;;;;;4958280;28;20480;-79
2022/04/13 00:19:41;;;;;;;2.55;1.95;;;12.90;99.90;;;;;;4962227;28;20042;-79
2022/04/13 00:22:07;;;;;;;3.03;1.90;;;12.90;99.90;;;;;;4972358;28;20089;-80
2022/04/13 00:24:33;;;;;;;2.55;1.75;;;12.80;99.90;;;;;;4951796;28;20086;-79
2022/04/13 00:26:59;;;;;;;2.08;1.63;;;12.70;99.90;;;;;;4952459;29;20047;-79
2022/04/13 00:29:26;;;;;;;2.63;1.70;;;12.70;99.90;;;;;;4951750;29;20050;-79
2022/04/13 00:31:52;;;;;;;2.20;1.67;;;12.60;99.90;;;;;;4951665;28;20046;-79
2022/04/13 00:34:18;;;;;;;2.17;1.55;;;12.60;99.90;;;;;;4951394;29;20041;-78
2022/04/13 00:36:44;;;;;;;2.05;1.70;;;12.60;99.90;;;;;;4952070;29;20050;-79
2022/04/13 00:39:09;;;;;;;4.07;2.40;;;12.60;99.90;;;;;;4950594;28;20055;-79
2022/04/13 00:41:35;;;;;;;3.03;2.22;;;12.70;99.90;;;;;;4935721;29;20059;-79
2022/04/13 00:44:09;;;;;;;2.50;2.00;;;12.70;99.90;;;;;;4948522;29;20043;-79
2022/04/13 00:46:35;;;;;;;2.42;1.92;;;12.60;99.90;;;;;;4951302;29;20455;-79
2022/04/13 00:49:03;;;;;;;;;;;12.60;99.90;;;;;;4932962;29;20031;-79
2022/04/13 00:51:29;;;;;;;4.88;2.22;;;12.60;99.90;;;;;;4942242;29;20328;-79
2022/04/13 00:53:59;;;;;;;2.78;2.10;;;12.70;99.90;;;;;;4950984;29;20050;-79
2022/04/13 00:56:27;;;;;;;2.45;2.05;;;12.60;99.90;;;;;;4941480;29;20509;-79
2022/04/13 00:59:14;;;;;;;3.15;2.22;;;12.60;99.90;;;;;;4942612;29;20139;-79
2022/04/13 01:01:47;;;;;;;4.00;2.80;;;12.60;99.90;;;;;;4948964;29;20063;-78
2022/04/13 01:04:14;;;;;;;3.30;2.58;;;12.60;99.90;;;;;;4964499;28;20055;-80
2022/04/13 01:06:40;;;;;;;5.55;2.72;;;12.60;99.90;;;;;;4949098;28;20054;-79
2022/04/13 01:09:06;;;;;;;2.70;2.00;;;12.60;99.90;;;;;;4933928;29;20042;-79
2022/04/13 01:11:32;;;;;;;3.58;2.40;;;12.60;99.90;;;;;;4963350;28;20038;-79
2022/04/13 01:13:58;;;;;;;3.00;2.17;;;12.60;99.90;;;;;;4971276;28;20050;-79
2022/04/13 01:16:25;;;;;;;3.70;1.90;;;12.50;99.90;;;;;;4945808;28;20051;-79
2022/04/13 01:18:52;;;;;;;3.13;2.33;;;12.50;99.90;;;;;;4944977;29;20134;-78
2022/04/13 01:21:20;;;;;;;3.13;2.35;;;12.40;99.90;;;;;;4944708;29;20047;-79
2022/04/13 01:23:51;;;;;;;2.65;2.17;;;12.30;99.90;;;;;;4951352;29;20067;-78
2022/04/13 01:26:17;;;;;;;2.47;1.90;;;12.30;99.90;;;;;;4948541;29;20522;-79
2022/04/13 01:28:43;;;;;;;2.83;2.05;;;12.30;99.90;;;;;;4922854;28;20047;-79
2022/04/13 01:31:08;;;;;;;3.35;2.67;;;12.20;99.90;;;;;;4930494;29;20050;-78
2022/04/13 01:33:35;;;;;;;3.25;2.30;;;12.30;99.90;;;;;;4934931;29;20082;-79
2022/04/13 01:36:01;;;;;;;3.35;2.60;;;12.20;99.90;;;;;;4948489;29;20043;-79
2022/04/13 01:38:28;;;;;;;2.95;2.30;;;12.20;99.90;;;;;;4951017;29;20039;-78
2022/04/13 01:40:56;;;;;;;2.00;1.65;;;12.20;99.90;;;;;;4951262;29;20058;-79
2022/04/13 01:43:22;;;;;;;2.63;1.95;;;12.10;99.90;;;;;;4951017;29;20047;-79
2022/04/13 01:45:47;;;;;;;3.05;2.10;;;12.20;99.90;;;;;;4951286;29;20043;-79
2022/04/13 01:48:13;;;;;;;2.83;2.08;;;12.20;99.90;;;;;;4941034;29;20043;-79
2022/04/13 01:50:39;;;;;;;2.83;2.10;;;12.10;99.90;;;;;;4949877;29;20047;-79
2022/04/13 01:53:04;;;;;;;3.65;2.10;;;12.10;99.90;;;;;;4948228;29;20043;-79
2022/04/13 01:55:30;;;;;;;3.25;2.63;;;12.10;99.90;;;;;;4944432;28;20039;-79
2022/04/13 01:57:56;;;;;;;3.17;2.20;;;12.10;99.90;;;;;;4949744;29;20043;-79
2022/04/13 02:00:21;;;;;;;2.47;2.20;;;12.00;99.90;;;;;;4936025;28;20525;-78
2022/04/13 02:02:47;;;;;;;2.65;1.92;;;12.00;99.90;;;;;;4950187;29;20723;-79
2022/04/13 02:05:13;;;;;;;2.25;1.90;;;11.90;99.90;;;;;;4944728;29;20035;-79
2022/04/13 02:07:38;;;;;;;2.22;1.67;;;11.90;99.90;;;;;;4949057;29;20106;-80
2022/04/13 02:10:05;;;;;;;3.47;2.50;;;11.80;99.90;;;;;;4953520;28;20126;-78
2022/04/13 02:12:32;;;;;;;4.43;3.00;;;11.80;99.90;;;;;;4965323;28;20124;-78
2022/04/13 02:14:58;;;;;;;3.90;2.90;;;11.80;99.90;;;;;;4950547;29;20122;-79
2022/04/13 02:17:23;;;;;;;4.35;3.10;;;11.80;99.90;;;;;;4949331;29;20130;-79
2022/04/13 02:19:49;;;;;;;4.70;3.42;;;11.90;99.90;;;;;;4968709;28;20054;-79
2022/04/13 02:22:15;;;;;;;3.40;2.58;;;11.90;99.90;;;;;;4947461;29;20115;-79
2022/04/13 02:24:40;;;;;;;3.05;2.38;;;11.80;99.90;;;;;;4934125;29;20461;-79
2022/04/13 02:27:10;;;;;;;3.35;2.15;;;11.80;99.90;;;;;;4954791;29;20491;-79
2022/04/13 02:29:39;;;;;;;3.88;2.20;;;11.80;99.90;;;;;;4953071;29;20047;-79
2022/04/13 02:32:06;;;;;;;3.20;2.25;;;11.70;99.90;;;;;;4954040;29;20394;-79
2022/04/13 02:34:32;;;;;;;3.22;2.17;;;11.60;99.90;;;;;;4953747;29;20502;-79
2022/04/13 02:36:58;;;;;;;;;;;11.60;99.90;;;;;;4950122;29;20058;-80
2022/04/13 02:39:24;;;;;;;3.78;2.40;;;11.60;99.90;;;;;;4937749;29;19934;-78
2022/04/13 02:41:49;;;;;;;2.85;2.20;;;11.60;99.90;;;;;;4950314;29;20062;-79
2022/04/13 02:44:15;;;;;;;3.10;2.20;;;11.60;99.90;;;;;;4929706;29;20054;-79
2022/04/13 02:46:43;;;;;;;2.40;1.88;;;11.60;99.90;;;;;;4954300;29;20125;-79
2022/04/13 02:49:09;;;;;;;4.75;2.67;;;11.60;99.90;;;;;;4938135;29;20051;-79
2022/04/13 02:51:34;;;;;;;3.78;2.75;;;11.60;99.90;;;;;;4953033;29;20070;-79
2022/04/13 02:54:00;;;;;;;4.15;3.13;;;11.70;99.90;;;;;;4937558;29;20142;-79
2022/04/13 02:56:26;;;;;;;3.35;2.60;;;11.70;99.90;;;;;;4954221;29;20055;-79
2022/04/13 02:58:51;;;;;;;4.03;3.17;;;11.60;99.90;;;;;;4948558;28;20054;-79
2022/04/13 03:01:17;;;;;;;5.57;3.75;;;11.70;99.90;;;;;;4949240;29;20039;-79
2022/04/13 03:03:43;;;;;;;6.00;4.00;;;11.70;99.90;;;;;;4956169;28;20043;-79
2022/04/13 03:06:09;;;;;;;4.05;3.35;;;11.70;99.90;;;;;;4953362;29;20075;-79
2022/04/13 03:08:34;;;;;;;5.32;3.40;;;11.70;99.90;;;;;;4921326;29;20066;-79
2022/04/13 03:11:01;;;;;;;4.40;3.22;;;11.80;99.90;;;;;;4953878;29;20051;-79
2022/04/13 03:13:26;;;;;;;;;;;11.80;99.90;;;;;;4954177;29;20045;-79
2022/04/13 03:15:52;;;;;;;4.60;3.47;;;11.80;99.90;;;;;;4953330;29;19926;-79
2022/04/13 03:18:18;;;;;;;5.57;3.40;;;11.80;99.90;;;;;;4952795;29;20047;-79
2022/04/13 03:20:43;;;;;;;4.25;3.30;;;11.90;99.90;;;;;;4951406;28;20427;-79
2022/04/13 03:23:09;;;;;;;4.47;3.70;;;11.90;99.90;;;;;;4953486;29;20053;-78
2022/04/13 03:25:35;;;;;;;5.68;4.22;;;11.90;99.90;;;;;;4945036;29;20047;-79
2022/04/13 03:28:00;;;;;;;6.35;4.03;;;11.90;99.90;;;;;;4953260;29;20043;-80
2022/04/13 03:30:26;;;;;;;5.25;4.10;;;11.90;99.90;;;;;;4952803;28;20189;-80
2022/04/13 03:32:52;;;;;;;6.10;4.32;;;11.90;99.90;;;;;;4952993;29;20043;-80
2022/04/13 03:35:18;;;;;;;5.82;3.83;;;11.80;99.90;;;;;;4929590;29;20035;-80
2022/04/13 03:37:43;;;;;;;4.18;3.28;;;11.80;99.90;;;;;;4952690;29;20047;-78
2022/04/13 03:40:11;;;;;;;5.72;3.75;;;11.80;99.90;;;;;;4952296;28;20058;-78
2022/04/13 03:42:38;;;;;;;6.22;4.65;;;11.70;99.90;;;;;;4953746;29;20078;-79
2022/04/13 03:45:06;;;;;;;6.88;4.90;;;11.70;99.90;;;;;;4953315;29;20126;-79
2022/04/13 03:47:31;;;;;;;4.80;3.83;;;11.60;99.90;;;;;;4951794;29;20049;-78
2022/04/13 03:49:57;;;;;;;4.85;4.07;;;11.60;99.90;;;;;;4930793;29;20040;-80
2022/04/13 03:52:23;;;;;;;4.32;3.50;;;11.60;99.90;;;;;;4948375;29;20051;-79
2022/04/13 03:54:49;;;;;;;3.72;2.88;;;11.50;99.90;;;;;;4950811;29;20050;-79
2022/04/13 03:57:15;;;;;;;3.90;3.25;;;11.40;99.90;;;;;;4944931;29;20044;-79
2022/04/13 03:59:41;;;;;;;4.10;3.10;;;11.30;99.90;;;;;;4936508;29;20118;-79
2022/04/13 04:02:06;;;;;;;4.75;3.75;;;11.30;99.90;;;;;;4935754;29;20050;-79
2022/04/13 04:04:32;;;;;;;5.03;3.85;;;11.20;99.90;;;;;;4943534;29;20130;-79
2022/04/13 04:06:58;;;;;;;5.35;3.85;;;11.20;99.90;;;;;;4927204;29;20073;-79
2022/04/13 04:09:24;;;;;;;5.13;3.72;;;11.10;99.90;;;;;;4952223;28;20054;-79
2022/04/13 04:11:49;;;;;;;4.10;3.35;;;11.00;99.90;;;;;;4953937;28;20054;-79
2022/04/13 04:14:15;;;;;;;4.43;3.60;;;11.00;99.90;;;;;;4948318;28;20069;-79
2022/04/13 04:16:41;;;;;;;4.35;3.47;;;10.90;99.90;;;;;;4951954;29;20070;-79
2022/04/13 04:19:06;;;;;;;4.03;2.80;;;10.90;99.90;;;;;;4942385;29;20129;-78
2022/04/13 04:21:32;;;;;;;3.78;2.47;;;10.80;99.90;;;;;;4945800;28;20039;-79
2022/04/13 04:23:58;;;;;;;3.72;2.75;;;10.80;99.90;;;;;;4936462;29;20069;-79
2022/04/13 04:26:23;;;;;;;4.85;3.35;;;10.80;99.90;;;;;;4949564;29;20050;-79
2022/04/13 04:28:49;;;;;;;3.67;2.70;;;10.80;99.90;;;;;;4940684;29;20126;-78
2022/04/13 04:31:19;;;;;;;3.47;2.55;;;10.70;99.90;;;;;;4938477;29;20074;-79
2022/04/13 04:33:45;;;;;;;3.53;2.45;;;10.70;99.90;;;;;;4951962;29;20057;-79
2022/04/13 04:36:11;;;;;;;4.35;2.90;;;10.70;99.90;;;;;;4916115;29;20147;-78
2022/04/13 04:38:37;;;;;;;3.70;2.78;;;10.60;99.90;;;;;;4949884;28;20436;-77
2022/04/13 04:41:03;;;;;;;3.85;2.70;;;10.60;99.90;;;;;;4944211;28;20043;-79
2022/04/13 04:43:29;;;;;;;4.35;3.17;;;10.60;99.90;;;;;;4935218;28;20058;-79
2022/04/13 04:45:55;;;;;;;4.03;3.30;;;10.60;99.90;;;;;;4947675;28;20077;-79
2022/04/13 04:48:20;;;;;;;5.13;4.20;;;10.60;99.90;;;;;;4952361;28;20406;-79
2022/04/13 04:50:46;;;;;;;5.53;4.40;;;10.70;99.90;;;;;;4951484;29;20450;-79
2022/04/13 04:53:12;;;;;;;5.60;4.55;;;10.70;99.90;;;;;;4951388;29;20073;-79
2022/04/13 04:55:38;;;;;;;6.50;4.35;;;10.80;99.90;;;;;;4952908;28;20117;-80
2022/04/13 04:58:03;;;;;;;7.53;4.85;;;10.80;99.90;;;;;;4950966;28;20110;-79
2022/04/13 05:00:35;;;;;;;7.30;5.63;;;10.90;99.90;;;;;;4932328;29;20086;-78
2022/04/13 05:03:01;;;;;;;7.57;5.95;;;11.00;99.90;;;;;;4966844;28;20102;-79
2022/04/13 05:05:26;;;;;;;6.28;5.07;;;11.10;99.90;;;;;;4950432;29;20471;-79
2022/04/13 05:07:52;;;;;;;7.93;4.53;;;11.10;99.90;;;;;;4951939;29;20047;-79
2022/04/13 05:10:17;;;;;;;6.82;4.95;;;11.20;99.90;;;;;;4944920;28;20470;-79
2022/04/13 05:12:52;;;;;;;5.68;4.30;;;11.20;99.90;;;;;;4954100;28;20091;-79
2022/04/13 05:15:17;;;;;;;4.97;3.70;;;11.30;99.90;;;;;;4951023;29;20043;-79
2022/04/13 05:17:43;;;;;;;7.15;4.43;;;11.30;99.90;;;;;;4952475;28;20044;-78
2022/04/13 05:20:09;;;;;;;4.65;3.20;;;11.40;99.90;;;;;;4950401;29;20043;-79
2022/04/13 05:22:35;;;;;;;;;;;11.40;99.90;;;;;;4950923;29;20043;-80
2022/04/13 05:25:08;;;;;;;5.00;4.05;;;11.50;99.90;;;;;;4951140;29;19922;-79
2022/04/13 05:27:34;;;;;;;7.10;4.00;;;11.60;99.90;;;;;;4959985;28;20086;-78
2022/04/13 05:29:59;;;;;;;5.57;3.55;;;11.60;99.90;;;;;;4934563;29;20165;-79
2022/04/13 05:32:25;;;;;;;5.22;4.32;;;11.60;99.90;;;;;;4934622;29;20039;-81
2022/04/13 05:35:00;;;;;;;8.25;5.93;;;11.60;99.90;;;;;;4950983;29;20390;-80
2022/04/13 05:37:29;;;;;;;8.77;5.82;;;11.70;99.90;;;;;;4950403;28;20046;-81
2022/04/13 05:39:55;;;;;;;7.80;5.90;;;11.70;99.90;;;;;;4950477;28;20395;-79
2022/04/13 05:42:23;;;;;;;8.82;6.10;;;11.70;99.90;;;;;;4948800;28;20113;-81
2022/04/13 05:44:49;;;;;;;12.25;8.05;;;11.70;99.90;;;;;;4930794;29;20050;-79
2022/04/13 05:47:15;;;;;;;8.38;5.97;;;11.70;99.90;;;;;;4945025;28;20391;-78
2022/04/13 05:49:41;;;;;;;8.95;6.60;;;11.80;99.90;;;;;;4950957;29;20098;-79
2022/04/13 05:52:07;;;;;;;10.98;7.32;;;11.80;99.90;;;;;;4948234;29;20475;-80
2022/04/13 05:54:33;;;;;;;9.57;6.53;;;11.80;99.90;;;;;;4949425;28;20094;-80
2022/04/13 05:56:58;;;;;;;11.10;6.00;;;11.80;99.90;;;;;;4952389;28;20059;-79
2022/04/13 05:59:24;;;;;;;8.00;6.00;;;11.80;99.90;;;;;;4953460;28;20501;-78
2022/04/13 06:01:50;;;;;;;11.48;7.30;;;11.90;99.90;;;;;;4944700;28;20054;-79
2022/04/13 06:04:16;;;;;;;9.73;6.88;;;11.90;99.90;;;;;;4949522;28;20123;-78
2022/04/13 06:06:42;;;;;;;12.77;8.13;;;12.00;99.90;;;;;;4949109;28;20058;-79
2022/04/13 06:09:07;;;;;;;14.07;9.85;;;12.10;99.90;;;;;;4931693;28;20047;-79
2022/04/13 06:11:33;;;;;;;15.25;9.80;;;12.20;99.90;;;;;;4949139;28;20043;-78
2022/04/13 06:13:59;;;;;;;15.32;10.45;;;12.20;99.90;;;;;;4946350;29;20043;-77
2022/04/13 06:16:24;;;;;;;13.48;8.85;;;12.20;99.90;;;;;;4946934;28;20047;-78
2022/04/13 06:18:50;;;;;;;16.10;9.73;;;12.30;99.90;;;;;;4949216;29;20079;-78
2022/04/13 06:21:16;;;;;;;11.88;7.93;;;12.30;99.90;;;;;;4938530;29;20051;-77
2022/04/13 06:23:41;;;;;;;13.85;8.45;;;12.30;99.90;;;;;;4932859;29;20051;-78
2022/04/13 06:26:07;;;;;;;13.82;10.38;;;12.30;99.90;;;;;;4947405;28;20474;-77
2022/04/13 06:28:32;;;;;;;15.98;11.30;;;12.30;99.90;;;;;;4945572;28;20051;-79
2022/04/13 06:30:58;;;;;;;13.57;10.02;;;12.40;99.90;;;;;;4944447;28;20040;-80
2022/04/13 06:33:24;;;;;;;13.88;9.63;;;12.40;99.90;;;;;;4947002;28;20043;-78
2022/04/13 06:35:50;;;;;;;15.35;10.80;;;12.40;99.90;;;;;;4948026;28;20051;-78
2022/04/13 06:38:16;;;;;;;;;;;12.50;99.90;;;;;;4944022;28;20513;-77
2022/04/13 06:40:41;;;;;;;12.85;9.18;;;12.50;99.90;;;;;;4925200;28;19923;-78
2022/04/13 06:43:07;;;;;;;13.85;10.25;;;12.50;99.90;;;;;;4940588;29;20043;-80
2022/04/13 06:45:33;;;;;;;14.25;10.27;;;12.60;99.90;;;;;;4929603;29;20039;-80
2022/04/13 06:47:59;;;;;;;15.43;10.50;;;12.70;99.90;;;;;;4938052;29;20216;-80
2022/04/13 06:50:25;;;;;;;11.63;8.27;;;12.90;99.90;;;;;;4945279;29;20175;-80
2022/04/13 06:52:50;;;;;;;11.27;8.98;;;13.00;99.90;;;;;;4947442;28;20182;-80
2022/04/13 06:55:16;;;;;;;15.35;9.75;;;13.30;99.90;;;;;;4960033;28;20142;-80
2022/04/13 06:57:42;;;;;;;13.90;9.98;;;13.50;99.90;;;;;;4943384;29;20046;-81
2022/04/13 07:00:10;;;;;;;16.23;9.73;;;13.60;99.90;;;;;;4934530;29;20039;-81
2022/04/13 07:02:36;;;;;;;14.10;9.88;;;13.70;99.90;;;;;;4947201;28;20051;-79
2022/04/13 07:05:03;;;;;;;13.65;9.07;;;13.70;99.90;;;;;;4950918;28;20455;-81
2022/04/13 07:07:29;;;;;;;12.50;8.45;;;13.80;99.90;;;;;;4938826;28;20066;-80
2022/04/13 07:09:55;;;;;;;12.85;8.88;;;13.80;99.90;;;;;;4949930;28;20054;-80
2022/04/13 07:12:20;;;;;;;14.27;9.93;;;13.90;99.90;;;;;;4933700;29;20050;-80
2022/04/13 07:14:46;;;;;;;17.45;10.52;;;13.80;99.90;;;;;;4951287;28;20833;-80
2022/04/13 07:17:12;;;;;;;13.75;8.70;;;13.80;99.90;;;;;;4935212;28;20043;-79
2022/04/13 07:19:38;;;;;;;17.30;10.48;;;13.90;99.90;;;;;;4954349;28;20050;-80
2022/04/13 07:22:04;;;;;;;15.43;9.95;;;14.20;99.90;;;;;;4946340;29;20051;-79
2022/04/13 07:24:30;;;;;;;14.32;9.98;;;14.50;99.90;;;;;;4950319;28;20130;-79
2022/04/13 07:26:56;;;;;;;15.02;9.43;;;14.70;99.90;;;;;;4925050;29;20565;-80
2022/04/13 07:29:21;;;;;;;13.95;9.38;;;14.80;99.90;;;;;;4954755;28;20047;-78
2022/04/13 07:31:47;;;;;;;12.75;9.00;;;15.10;99.90;;;;;;4948500;28;20055;-76
2022/04/13 07:34:13;;;;;;;13.65;8.48;;;15.20;99.90;;;;;;4948675;28;20217;-78
2022/04/13 07:36:39;;;;;;;13.98;8.73;;;15.50;99.90;;;;;;4917986;29;20047;-79
2022/04/13 07:39:04;;;;;;;14.45;8.65;;;15.50;99.90;;;;;;4952456;29;20106;-77
2022/04/13 07:41:30;;;;;;;12.40;8.32;;;15.50;99.90;;;;;;4936655;29;20071;-79
2022/04/13 07:43:57;;;;;;;11.75;8.48;;;15.40;99.90;;;;;;4953418;29;20057;-78
2022/04/13 07:46:27;;;;;;;11.85;7.93;;;15.20;99.90;;;;;;4932342;29;20134;-78
2022/04/13 07:48:56;;;;;;;11.68;8.40;;;15.10;99.90;;;;;;4954167;29;20091;-79
2022/04/13 07:51:22;;;;;;;14.02;8.02;;;15.00;99.90;;;;;;4969889;28;20155;-79
2022/04/13 07:53:48;;;;;;;13.80;8.70;;;14.80;99.90;;;;;;4953995;29;20039;-79
2022/04/13 07:56:13;;;;;;;13.60;8.23;;;14.70;99.90;;;;;;4952839;29;20047;-79
2022/04/13 07:58:39;;;;;;;13.50;8.55;;;14.60;99.90;;;;;;4952735;29;20051;-79
2022/04/13 08:01:05;;;;;;;11.13;8.27;;;14.50;99.90;;;;;;4953558;29;20058;-78
2022/04/13 08:03:31;;;;;;;10.85;8.20;;;14.50;99.90;;;;;;4937678;29;20054;-78
2022/04/13 08:05:58;;;;;;;13.57;7.88;;;14.60;99.90;;;;;;4967397;28;20063;-79
2022/04/13 08:08:23;;;;;;;15.02;8.70;;;14.60;99.90;;;;;;4947522;29;20058;-78
2022/04/13 08:10:49;;;;;;;12.82;8.25;;;14.60;99.90;;;;;;4963171;28;20047;-78
2022/04/13 08:13:15;;;;;;;12.85;8.68;;;14.60;99.90;;;;;;4946736;29;20482;-78
2022/04/13 08:15:40;;;;;;;12.82;8.73;;;14.70;99.90;;;;;;4952900;28;20046;-78
2022/04/13 08:18:06;;;;;;;14.48;8.40;;;14.70;99.90;;;;;;4936320;29;20051;-78
2022/04/13 08:20:32;;;;;;;12.15;7.82;;;14.80;99.90;;;;;;4952557;29;20046;-79
2022/04/13 08:22:58;;;;;;;12.13;7.18;;;14.90;99.90;;;;;;4953420;29;20054;-72
2022/04/13 08:25:23;;;;;;;10.48;7.32;;;15.00;99.90;;;;;;4948452;29;20031;-72
2022/04/13 08:27:49;;;;;;;9.95;7.13;;;15.30;99.90;;;;;;4948472;28;20055;-72
2022/04/13 08:30:15;;;;;;;11.77;7.40;;;15.50;99.90;;;;;;4936114;29;20443;-73
2022/04/13 08:32:42;;;;;;;10.35;6.72;;;15.60;99.90;;;;;;4948760;29;20035;-73
2022/04/13 08:35:09;;;;;;;14.02;8.05;;;15.70;99.90;;;;;;4951455;28;20479;-74
2022/04/13 08:37:36;;;;;;;8.13;5.45;;;15.70;99.90;;;;;;4952070;28;20049;-73
2022/04/13 08:40:02;;;;;;;8.85;5.30;;;15.80;99.90;;;;;;4946348;28;20134;-74
2022/04/13 08:42:47;;;;;;;8.15;5.80;;;16.10;99.90;;;;;;4950394;29;20090;-74
2022/04/13 08:45:22;;;;;;;12.52;7.28;;;16.30;99.90;;;;;;4942809;29;20062;-75
2022/04/13 08:47:49;;;;;;;10.23;6.40;;;16.30;99.90;;;;;;4951568;29;20553;-72
2022/04/13 08:50:17;;;;;;;10.70;6.43;;;16.40;99.90;;;;;;4952127;29;20126;-71
2022/04/13 08:52:49;;;;;;;8.57;5.88;;;16.60;99.90;;;;;;4951562;28;20047;-71
2022/04/13 08:55:18;;;;;;;10.45;5.43;;;16.80;99.90;;;;;;4951738;29;20042;-72
2022/04/13 08:57:49;;;;;;;8.73;5.68;;;17.10;99.90;;;;;;4951470;28;20125;-72
2022/04/13 09:00:17;;;;;;;8.90;6.10;;;17.20;99.90;;;;;;4951562;28;20113;-73
2022/04/13 09:02:52;;;;;;;8.82;5.65;;;17.20;99.90;;;;;;4939268;29;20491;-73
2022/04/13 09:05:23;;;;;;;8.40;5.38;;;17.00;99.90;;;;;;4950416;28;20046;-73
2022/04/13 09:08:05;;;;;;;10.25;6.45;;;16.90;99.90;;;;;;4948819;29;20051;-74
2022/04/13 09:10:32;;;;;;;10.20;5.40;;;16.70;99.90;;;;;;4950179;29;20055;-74
2022/04/13 09:12:58;;;;;;;8.38;5.20;;;16.60;99.90;;;;;;4935929;29;20129;-73
2022/04/13 09:15:25;;;;;;;8.65;5.15;;;16.60;99.90;;;;;;4952031;29;20043;-73
2022/04/13 09:17:50;;;;;;;;;;;16.70;99.90;;;;;;4952842;29;20047;-73
2022/04/13 09:20:16;;;;;;;8.77;5.00;;;16.70;99.90;;;;;;4936044;29;19918;-71
2022/04/13 09:22:43;;;;;;;9.52;5.30;;;16.90;99.90;;;;;;4952271;29;20082;-74
2022/04/13 09:25:10;;;;;;;8.93;4.80;;;17.00;99.90;;;;;;4952140;29;20454;-73
2022/04/13 09:27:38;;;;;;;8.95;4.70;;;17.10;99.90;;;;;;4951812;28;20051;-74
2022/04/13 09:30:09;;;;;;;9.88;5.10;;;17.30;99.90;;;;;;4951735;28;20043;-73
2022/04/13 09:32:35;;;;;;;7.50;4.55;;;17.50;99.90;;;;;;4951766;29;20190;-74
2022/04/13 09:35:02;;;;;;;6.00;3.60;;;17.60;99.90;;;;;;4951837;29;20051;-73
2022/04/13 09:37:28;;;;;;;7.85;3.97;;;17.60;99.90;;;;;;4951467;29;20043;-74
2022/04/13 09:39:55;;;;;;;;;;;17.70;99.90;;;;;;4920226;29;20086;-74
2022/04/13 09:42:26;;;;;;;5.83;4.00;;;17.80;99.90;;;;;;4920271;29;19918;-74
2022/04/13 09:44:56;;;;;;;7.70;4.32;;;17.80;99.90;;;;;;4951748;29;20055;-74
2022/04/13 09:47:28;;;;;;;8.80;4.65;;;17.80;99.90;;;;;;4951608;28;20055;-74
2022/04/13 09:49:55;;;;;;;7.45;4.22;;;17.70;99.90;;;;;;4951789;29;20051;-74
2022/04/13 09:52:41;;;;;;;7.80;3.88;;;17.90;99.90;;;;;;4951448;29;20051;-73
2022/04/13 09:55:08;;;;;;;7.07;4.55;;;18.10;99.90;;;;;;4935415;29;20079;-73
2022/04/13 09:57:34;;;;;;;8.52;4.38;;;18.10;99.90;;;;;;4935797;29;20083;-73
2022/04/13 10:00:05;;;;;;;8.80;4.40;;;18.20;99.90;;;;;;4951575;28;20051;-82
2022/04/13 10:02:44;;;;;;;7.45;3.63;;;18.20;99.90;;;;;;4951863;28;20071;-81
2022/04/13 10:05:16;;;;;;;6.70;3.25;;;18.30;99.90;;;;;;4951480;28;20047;-73
2022/04/13 10:07:43;;;;;;;6.65;3.67;;;18.60;99.90;;;;;;4951484;29;20098;-73
2022/04/13 10:10:24;;;;;;;7.20;3.60;;;18.70;99.90;;;;;;4951481;28;20110;-74
2022/04/13 10:12:49;;;;;;;7.07;3.28;;;18.70;99.90;;;;;;4951163;29;20561;-74
2022/04/13 10:15:15;;;;;;;;;;;18.80;99.90;;;;;;4951749;29;20225;-74
2022/04/13 10:17:42;;;;;;;6.57;3.60;;;18.80;99.90;;;;;;4951488;29;19918;-74
2022/04/13 10:20:08;;;;;;;8.50;3.30;;;18.70;99.90;;;;;;4951406;29;20062;-74
2022/04/13 10:22:34;;;;;;;6.82;3.70;;;18.80;99.90;;;;;;4951289;28;20048;-74
2022/04/13 10:25:20;;;;;;;;;;;18.90;99.90;;;;;;4951624;29;20101;-74
2022/04/13 10:27:57;;;;;;;5.90;3.15;;;19.10;99.90;;;;;;4951098;29;19946;-73
2022/04/13 10:30:35;;;;;;;4.70;2.53;;;19.10;99.90;;;;;;4950974;28;20660;-73
2022/04/13 10:33:12;;;;;;;6.57;3.13;;;19.10;99.90;;;;;;4951113;29;20130;-73
2022/04/13 10:35:44;;;;;;;4.88;3.00;;;19.00;99.90;;;;;;4951064;29;20046;-74
2022/04/13 10:38:12;;;;;;;5.18;2.97;;;19.00;99.90;;;;;;4951079;29;20047;-75
2022/04/13 10:40:40;;;;;;;5.20;2.45;;;19.10;99.90;;;;;;4952131;28;20415;-75
2022/04/13 10:43:08;;;;;;;5.50;2.58;;;19.30;99.90;;;;;;4953292;29;20664;-75
2022/04/13 10:45:34;;;;;;;4.75;2.40;;;19.10;99.90;;;;;;4936538;29;20032;-74
2022/04/13 10:48:05;;;;;;;5.13;2.47;;;19.10;99.90;;;;;;4953945;29;20050;-73
2022/04/13 10:50:34;;;;;;;5.15;2.50;;;18.80;99.90;;;;;;4950370;28;20085;-73
2022/04/13 10:53:18;;;;;;;6.18;2.25;;;18.90;99.90;;;;;;4948337;29;20043;-73
2022/04/13 10:55:49;;;;;;;5.97;3.03;;;19.10;99.90;;;;;;4952700;28;20065;-73
2022/04/13 10:58:43;;;;;;;6.88;3.50;;;19.40;99.90;;;;;;4954115;29;20047;-72
2022/04/13 11:01:15;;;;;;;5.13;3.38;;;19.30;99.90;;;;;;4953724;29;20225;-74
2022/04/13 11:03:41;;;;;;;6.10;3.25;;;19.40;99.80;;;;;;4953316;29;20054;-74
2022/04/13 11:06:11;;;;;;;4.97;2.72;;;19.70;99.70;;;;;;4953403;28;20039;-75
2022/04/13 11:09:07;;;;;;;6.65;3.22;;;19.70;98.60;;;;;;4953756;28;20051;-74
2022/04/13 11:11:37;;;;;;;6.30;3.35;;;19.60;99.10;;;;;;4951370;28;20050;-72
2022/04/13 11:14:19;;;;;;;4.65;2.92;;;19.60;99.90;;;;;;4954114;28;20035;-73
2022/04/13 11:16:46;;;;;;;6.88;2.92;;;19.50;99.90;;;;;;4949436;28;20106;-73
2022/04/13 11:19:11;;;;;;;5.90;3.00;;;19.20;99.90;;;;;;4952519;29;20517;-73
2022/04/13 11:21:55;;;;;;;;;;;19.00;99.90;;;;;;4951112;28;20043;-75
2022/04/13 11:24:47;;;;;;;5.85;3.13;;;18.60;99.90;;;;;;4935206;29;19954;-74
2022/04/13 11:27:13;;;;;;;6.45;2.85;;;18.50;99.90;;;;;;4956657;28;20082;-74
2022/04/13 11:30:01;;;;;;;4.32;2.20;;;18.70;99.90;;;;;;4949801;28;20419;-74
2022/04/13 11:32:35;;;;;;;7.15;3.10;;;18.80;99.90;;;;;;4949447;28;20054;-74
2022/04/13 11:35:02;;;;;;;5.68;3.38;;;18.80;99.90;;;;;;4953427;28;20043;-74
2022/04/13 11:37:34;;;;;;;6.07;3.67;;;18.70;99.90;;;;;;4955241;28;20042;-74
2022/04/13 11:40:10;;;;;;;7.10;3.40;;;18.50;99.90;;;;;;4958993;28;20499;-74
2022/04/13 11:42:35;;;;;;;7.33;3.53;;;18.50;99.90;;;;;;4949181;29;20058;-74
2022/04/13 11:45:02;;;;;;;;;;;18.40;99.90;;;;;;4954002;29;20047;-73
2022/04/13 11:47:45;;;;;;;7.18;4.03;;;18.20;99.90;;;;;;4953441;29;19922;-73
2022/04/13 11:50:14;;;;;;;7.78;3.45;;;18.00;99.90;;;;;;4953426;28;20502;-74
2022/04/13 11:52:48;;;;;;;7.20;2.95;;;17.80;99.90;;;;;;4948755;29;20054;-73
2022/04/13 11:55:18;;;;;;;6.68;2.60;;;17.60;99.90;;;;;;4953547;29;20865;-74
2022/04/13 11:58:08;;;;;;;6.40;2.40;;;17.50;99.90;;;;;;4951662;29;20049;-74
2022/04/13 12:00:52;;;;;;;5.63;1.90;;;17.50;99.90;;;;;;4953186;29;20438;-72
2022/04/13 12:03:25;;;;;;;6.10;1.70;;;17.50;99.90;;;;;;4953953;29;20047;-72
2022/04/13 12:05:56;;;;;;;4.68;1.60;;;17.40;99.90;;;;;;4936012;29;20391;-73
2022/04/13 12:08:26;;;;;;;5.78;2.00;;;17.50;99.90;;;;;;4952838;28;20039;-74
2022/04/13 12:11:00;;;;;;;6.18;2.25;;;17.50;99.90;;;;;;4953064;29;20057;-74
2022/04/13 12:13:32;;;;;;;6.82;2.20;;;17.60;99.90;;;;;;4948924;28;20133;-74
2022/04/13 12:46:47;;;;;;;9.80;3.53;;;16.80;99.90;;;;;;5163028;27;20128;-72
2022/04/13 12:49:20;;;;;;;6.00;2.50;;;16.70;99.90;;;;;;5130832;27;20042;-71
2022/04/13 12:51:47;;;;;;;7.38;2.78;;;16.50;99.90;;;;;;5116068;27;20332;-71
2022/04/13 12:54:17;;;;;;;5.32;2.00;;;16.50;99.90;;;;;;5130036;27;20046;-70
2022/04/13 12:56:48;;;;;;;6.88;2.47;;;16.50;99.90;;;;;;5130720;27;20043;-71
2022/04/13 12:59:24;;;;;;;8.88;2.60;;;16.30;99.90;;;;;;5111827;27;20045;-71
2022/04/13 13:01:51;;;;;;;;;;;16.30;99.90;;;;;;5129775;27;20038;-71
2022/04/13 13:04:19;;;;;;;7.50;2.72;;;16.30;99.90;;;;;;5156162;27;20009;-71
2022/04/13 13:07:00;;;;;;;4.95;1.90;;;16.30;99.90;;;;;;5128426;27;20039;-71
2022/04/13 13:09:30;;;;;;;6.45;2.30;;;16.30;99.90;;;;;;5111146;27;20039;-74
2022/04/13 13:12:04;;;;;;;7.30;2.20;;;16.40;99.90;;;;;;5129479;27;20083;-72
2022/04/13 13:14:35;;;;;;;4.90;1.85;;;16.40;99.90;;;;;;5140712;27;20086;-74
2022/04/13 13:17:30;;;;;;;8.13;1.98;;;16.40;99.90;;;;;;5127614;27;20091;-74
2022/04/13 13:20:08;;;;;;;7.30;2.30;;;16.40;99.90;;;;;;5154864;27;20037;-76
2022/04/13 13:22:39;;;;;;;5.93;2.10;;;16.30;99.90;;;;;;5161036;27;20038;-73